Time;durP1;ratioP1;P1;durP2;ratioP2;P2;SDS_P1;SDS_P2;PMS_P1;PMS_P2;Temp;Humidity;BMP_temperature;BMP_pressure;BME280_temperature;BME280_humidity;BME280_pressure;Samples;Min_cycle;Max_cycle;Signal;HPM_P1;HPM_P2
2022/02/02 00:00:16;;;;;;;19.70;4.25;;;;;;;5.96;77.90;99244.25;5070676;28;20044;-76
2022/02/02 00:02:49;;;;;;;16.02;3.15;;;;;;;5.94;77.74;99231.16;5067616;28;20040;-76
2022/02/02 00:05:25;;;;;;;14.27;3.58;;;;;;;5.86;78.19;99202.38;5052315;28;20032;-76
2022/02/02 00:10:42;;;;;;;12.85;2.15;;;;;;;5.80;78.50;99217.31;5066619;28;20032;-76
2022/02/02 00:13:06;;;;;;;14.02;2.40;;;;;;;5.75;79.27;99212.09;5068301;28;20040;-76
2022/02/02 00:18:37;;;;;;;16.02;2.95;;;;;;;5.77;78.89;99220.81;5070232;28;20051;-76
2022/02/02 00:21:02;;;;;;;13.27;2.30;;;;;;;5.87;78.58;99226.84;5068400;28;20053;-75
2022/02/02 00:23:34;;;;;;;14.38;2.42;;;;;;;5.87;78.71;99219.00;5052379;28;20041;-76
2022/02/02 00:26:06;;;;;;;12.07;3.00;;;;;;;5.85;79.28;99241.69;5070121;28;20028;-76
2022/02/02 00:28:35;;;;;;;14.00;3.20;;;;;;;5.91;78.77;99220.69;5070438;28;20572;-76
2022/02/02 00:31:05;;;;;;;12.63;2.90;;;;;;;5.88;79.36;99225.97;5050131;28;20036;-76
2022/02/02 00:33:37;;;;;;;17.30;3.30;;;;;;;5.99;78.93;99233.75;5073384;28;20115;-77
2022/02/02 00:36:14;;;;;;;17.13;3.10;;;;;;;5.93;80.86;99242.50;5065766;28;20485;-76
2022/02/02 00:38:39;;;;;;;13.88;2.40;;;;;;;5.66;82.54;99248.81;5073926;28;20036;-76
2022/02/02 00:41:04;;;;;;;17.27;2.65;;;;;;;5.49;84.40;99247.16;5070956;28;20127;-76
2022/02/02 00:43:30;;;;;;;18.02;3.17;;;;;;;5.34;86.17;99238.53;5073816;28;20032;-77
2022/02/02 00:45:56;;;;;;;15.38;2.80;;;;;;;5.30;85.77;99252.53;5073622;28;20040;-76
2022/02/02 00:48:26;;;;;;;13.93;2.90;;;;;;;5.28;85.95;99242.06;5073353;28;20039;-77
2022/02/02 00:50:52;;;;;;;15.73;2.78;;;;;;;5.18;86.92;99241.22;5073554;28;20492;-76
2022/02/02 00:53:18;;;;;;;16.13;2.53;;;;;;;5.09;87.41;99238.69;5073599;28;20035;-77
2022/02/02 00:55:44;;;;;;;19.48;2.90;;;;;;;5.02;87.40;99222.13;5073074;28;20028;-76
2022/02/02 00:58:11;;;;;;;13.93;2.75;;;;;;;5.04;86.63;99235.22;5055614;28;20043;-76
2022/02/02 01:00:37;;;;;;;21.92;3.55;;;;;;;5.05;85.89;99234.31;5055418;28;20043;-76
2022/02/02 01:03:03;;;;;;;13.68;3.60;;;;;;;5.09;85.40;99241.28;5073078;28;20036;-76
2022/02/02 01:05:28;;;;;;;14.10;3.30;;;;;;;5.10;84.56;99239.53;5072970;28;20119;-76
2022/02/02 01:08:20;;;;;;;20.25;3.17;;;;;;;5.13;84.30;99234.28;5055350;28;20535;-76
2022/02/02 01:11:11;;;;;;;13.02;3.13;;;;;;;5.23;81.11;99270.84;5067616;28;20036;-76
2022/02/02 01:14:19;;;;;;;16.52;3.00;;;;;;;5.27;80.72;99242.94;5072675;28;20085;-76
2022/02/02 01:21:54;;;;;;;19.52;2.70;;;;;;;5.30;80.01;99226.38;5074302;28;20108;-76
2022/02/02 01:29:44;;;;;;;23.35;4.32;;;;;;;5.37;79.09;99269.91;5071245;28;20044;-76
2022/02/02 01:32:09;;;;;;;17.92;3.88;;;;;;;5.35;79.55;99279.53;5072745;28;20411;-76
2022/02/02 01:34:34;;;;;;;16.80;3.25;;;;;;;5.38;79.18;99246.38;5057530;28;20488;-76
2022/02/02 01:37:00;;;;;;;19.63;3.83;;;;;;;5.42;78.50;99269.03;5072621;28;20503;-75
2022/02/02 01:39:28;;;;;;;15.80;3.22;;;;;;;5.50;78.44;99263.72;5068673;28;20471;-76
2022/02/02 01:41:53;;;;;;;18.92;3.00;;;;;;;5.52;77.63;99271.59;5072261;28;20040;-76
2022/02/02 01:44:29;;;;;;;18.80;3.13;;;;;;;5.60;77.34;99259.31;5072214;28;20042;-76
2022/02/02 01:46:55;;;;;;;14.10;2.83;;;;;;;5.63;76.78;99268.03;5072466;28;20047;-76
2022/02/02 01:52:00;;;;;;;21.50;3.20;;;;;;;5.68;76.83;99263.59;5072449;28;20162;-76
2022/02/02 01:57:26;;;;;;;21.90;3.47;;;;;;;5.66;77.59;99275.88;5070723;28;20496;-76
2022/02/02 01:59:52;;;;;;;18.65;3.40;;;;;;;5.74;76.53;99269.69;5070156;28;20037;-76
2022/02/02 02:02:18;;;;;;;18.08;2.95;;;;;;;5.71;77.10;99267.97;5072222;28;20029;-76
2022/02/02 02:04:47;;;;;;;17.20;3.42;;;;;;;5.70;76.92;99284.56;5054077;28;20487;-76
2022/02/02 02:07:12;;;;;;;18.67;3.97;;;;;;;5.71;76.84;99276.69;5053855;28;20033;-76
2022/02/02 02:09:37;;;;;;;14.30;2.80;;;;;;;5.67;77.12;99269.75;5052654;28;20044;-76
2022/02/02 02:12:05;;;;;;;14.27;2.65;;;;;;;5.63;77.87;99273.28;5072074;28;20043;-75
2022/02/02 02:16:59;;;;;;;12.15;2.67;;;;;;;5.58;78.57;99275.03;5071262;28;20047;-77
2022/02/02 02:19:25;;;;;;;15.73;2.80;;;;;;;5.61;78.46;99259.31;5071568;28;20512;-76
2022/02/02 02:21:52;;;;;;;15.55;3.25;;;;;;;5.63;78.43;99282.84;5037234;28;20476;-76
2022/02/02 02:24:17;;;;;;;14.65;2.40;;;;;;;5.58;78.68;99271.53;5053332;28;20043;-75
2022/02/02 02:26:43;;;;;;;12.35;2.20;;;;;;;5.59;78.48;99300.31;5071747;28;20024;-76
2022/02/02 02:31:59;;;;;;;12.68;3.58;;;;;;;5.62;78.26;99287.22;5071639;28;20036;-76
2022/02/02 02:56:03;;;;;;;20.92;4.38;;;;;;;5.08;84.62;99309.28;5068172;28;20043;-76
2022/02/02 03:30:20;;;;;;;18.17;3.55;;;;;;;5.75;77.54;99295.00;5052952;28;20119;-76
2022/02/02 03:52:08;;;;;;;26.55;3.78;;;;;;;5.92;75.55;99322.81;5067336;28;20040;-76
2022/02/02 04:07:55;;;;;;;20.60;4.65;;;;;;;6.00;74.00;99355.97;5073796;28;20029;-76
2022/02/02 04:10:21;;;;;;;25.85;4.45;;;;;;;6.02;73.32;99339.34;5070424;28;20068;-75
2022/02/02 04:13:08;;;;;;;26.58;5.18;;;;;;;5.91;73.53;99342.00;5074143;28;20076;-76
2022/02/02 04:56:43;;;;;;;24.92;4.20;;;;;;;5.47;74.84;99377.13;5073249;28;20515;-77
2022/02/02 04:59:21;;;;;;;25.77;4.45;;;;;;;5.38;74.62;99399.88;5071729;28;20033;-77
2022/02/02 05:02:53;;;;;;;29.50;4.97;;;;;;;5.46;74.14;99371.94;5073211;28;20048;-75
2022/02/02 05:07:28;;;;;;;29.63;4.57;;;;;;;5.55;73.95;99379.72;5073292;28;20033;-76
2022/02/02 05:10:09;;;;;;;20.52;4.00;;;;;;;5.47;74.08;99389.34;5072547;28;20143;-76
2022/02/02 05:15:53;;;;;;;23.88;4.07;;;;;;;5.47;73.27;99376.28;5070139;28;20061;-76
2022/02/02 05:21:18;;;;;;;21.73;3.70;;;;;;;5.54;72.95;99425.09;5071463;28;20040;-76
2022/02/02 05:27:41;;;;;;;23.60;4.57;;;;;;;5.53;72.98;99423.38;5051975;28;20510;-77
2022/02/02 05:41:13;;;;;;;23.52;3.80;;;;;;;5.54;72.32;99424.25;5072871;28;20036;-76
2022/02/02 05:43:25;;;;;;;17.48;2.83;;;;;;;5.36;73.38;99440.88;5071080;28;20439;-76
2022/02/02 05:51:23;;;;;;;20.85;3.75;;;;;;;5.28;75.41;99478.38;5065319;28;20032;-76
2022/02/02 05:53:50;;;;;;;16.80;2.75;;;;;;;5.26;76.24;99446.09;5071813;28;20064;-75
2022/02/02 05:56:16;;;;;;;13.88;3.25;;;;;;;5.20;77.64;99481.88;5066971;28;20055;-77
2022/02/02 05:58:44;;;;;;;17.90;2.85;;;;;;;4.86;80.43;99465.34;5067367;28;20476;-77
2022/02/02 06:01:11;;;;;;;21.40;3.30;;;;;;;4.57;82.41;99474.03;5069188;28;20519;-77
2022/02/02 06:03:53;;;;;;;22.83;4.40;;;;;;;4.52;83.57;99483.63;5065499;28;20035;-76
2022/02/02 06:06:21;;;;;;;19.17;4.53;;;;;;;4.44;84.60;99464.44;5068159;28;20557;-77
2022/02/02 06:08:48;;;;;;;17.48;3.20;;;;;;;4.39;85.02;99467.91;5071017;28;20058;-77
2022/02/02 06:11:16;;;;;;;16.88;2.83;;;;;;;4.34;85.35;99476.59;5071109;28;20036;-76
2022/02/02 06:13:49;;;;;;;15.93;2.63;;;;;;;4.34;85.15;99479.22;5053210;28;20036;-76
2022/02/02 06:16:15;;;;;;;19.15;2.60;;;;;;;4.33;85.08;99501.88;5052724;28;20049;-77
2022/02/02 06:18:41;;;;;;;23.90;3.45;;;;;;;4.39;84.29;99496.66;5052943;28;20044;-77
2022/02/02 06:21:08;;;;;;;18.77;3.00;;;;;;;4.45;84.53;99506.22;5072415;28;20028;-76
2022/02/02 06:23:40;;;;;;;16.20;2.50;;;;;;;4.53;83.74;99495.78;5071284;28;20032;-76
2022/02/02 06:26:13;;;;;;;21.75;4.30;;;;;;;4.59;82.71;99482.75;5071553;28;20037;-77
2022/02/02 06:28:41;;;;;;;18.48;3.03;;;;;;;4.65;82.68;99493.22;5054082;28;20076;-76
2022/02/02 06:31:06;;;;;;;18.73;3.17;;;;;;;4.69;81.98;99488.84;5053909;28;20518;-77
2022/02/02 06:33:37;;;;;;;17.05;3.00;;;;;;;4.64;81.96;99528.06;5068070;28;20115;-77
2022/02/02 06:36:09;;;;;;;18.90;3.30;;;;;;;4.75;80.99;99479.28;5067366;28;20452;-76
2022/02/02 06:38:38;;;;;;;21.30;3.88;;;;;;;4.84;80.47;99500.19;5053796;28;20524;-75
2022/02/02 06:41:05;;;;;;;19.13;3.30;;;;;;;4.80;80.65;99527.22;5067766;28;20039;-76
2022/02/02 06:43:30;;;;;;;19.73;2.88;;;;;;;4.79;80.51;99538.56;5053608;28;20037;-77
2022/02/02 06:45:58;;;;;;;17.73;2.72;;;;;;;4.70;81.32;99535.91;5071118;28;20063;-77
2022/02/02 06:48:23;;;;;;;21.80;3.33;;;;;;;4.58;82.75;99547.22;5052815;28;20071;-77
2022/02/02 06:51:00;;;;;;;14.13;3.42;;;;;;;4.55;83.78;99509.75;5071796;28;20067;-76
2022/02/02 06:53:40;;;;;;;21.02;3.90;;;;;;;4.50;83.25;99529.75;5068527;28;20050;-76
2022/02/02 06:59:08;;;;;;;24.08;5.28;;;;;;;4.46;84.16;99536.72;5053482;28;20055;-76
2022/02/02 07:04:19;;;;;;;19.98;4.47;;;;;;;4.53;82.16;99535.88;5049412;28;20028;-76
2022/02/02 07:06:58;;;;;;;25.38;4.60;;;;;;;4.59;82.06;99551.56;5069887;28;20071;-77
2022/02/02 07:09:49;;;;;;;22.20;4.53;;;;;;;4.69;80.95;99539.41;5069219;28;20436;-76
2022/02/02 07:12:28;;;;;;;17.42;3.50;;;;;;;4.72;81.37;99544.63;5069960;28;20519;-76
2022/02/02 07:15:20;;;;;;;23.02;4.35;;;;;;;4.79;80.18;99551.63;5050315;28;20481;-76
2022/02/02 07:20:53;;;;;;;36.83;4.75;;;;;;;4.91;79.58;99565.56;5056585;28;20040;-77
2022/02/02 07:23:42;;;;;;;23.77;4.88;;;;;;;5.05;79.21;99566.44;5071122;28;20039;-77
2022/02/02 07:26:44;;;;;;;22.95;3.88;;;;;;;5.09;77.47;99554.25;5052906;28;20105;-76
2022/02/02 07:31:45;;;;;;;19.45;3.75;;;;;;;5.16;77.33;99582.13;5059194;28;20077;-76
2022/02/02 07:34:21;;;;;;;21.35;3.90;;;;;;;5.06;78.16;99570.81;5068162;28;20090;-77
2022/02/02 07:36:55;;;;;;;26.60;4.32;;;;;;;4.99;78.97;99592.59;5054211;28;20062;-77
2022/02/02 07:39:24;;;;;;;22.65;4.32;;;;;;;4.96;79.21;99600.44;5062292;28;20032;-76
2022/02/02 07:41:58;;;;;;;23.10;4.60;;;;;;;4.96;79.89;99603.06;5074348;28;20407;-77
2022/02/02 07:44:27;;;;;;;17.00;3.80;;;;;;;4.93;79.77;99623.97;5074502;28;20036;-77
2022/02/02 07:46:55;;;;;;;19.80;3.60;;;;;;;4.92;80.30;99627.44;5073234;28;20036;-77
2022/02/02 07:49:32;;;;;;;28.83;4.95;;;;;;;4.93;80.38;99614.38;5074491;28;20459;-77
2022/02/02 07:51:58;;;;;;;15.77;3.33;;;;;;;4.88;78.96;99647.50;5074639;28;20064;-76
2022/02/02 07:54:29;;;;;;;23.83;3.65;;;;;;;4.93;79.54;99624.84;5056481;28;20452;-77
2022/02/02 07:56:56;;;;;;;22.90;4.30;;;;;;;4.95;79.70;99617.88;5074381;28;20075;-76
2022/02/02 08:01:49;;;;;;;20.05;3.53;;;;;;;4.99;78.59;99618.75;5074497;28;20059;-77
2022/02/02 08:04:16;;;;;;;19.60;3.75;;;;;;;5.05;77.91;99643.16;5073684;28;20043;-76
2022/02/02 08:06:44;;;;;;;20.85;5.28;;;;;;;5.16;78.09;99642.31;5058281;28;20021;-77
2022/02/02 08:09:16;;;;;;;16.33;3.25;;;;;;;5.01;79.30;99637.94;5056119;28;20120;-77
2022/02/02 08:11:41;;;;;;;16.58;3.35;;;;;;;4.79;82.07;99643.13;5056709;28;20127;-77
2022/02/02 08:14:06;;;;;;;23.77;4.20;;;;;;;4.73;82.00;99669.22;5074162;28;20137;-76
2022/02/02 08:16:35;;;;;;;14.88;2.90;;;;;;;4.70;82.46;99673.56;5074204;28;20140;-77
2022/02/02 08:19:00;;;;;;;12.10;3.13;;;;;;;4.66;83.25;99654.38;5072357;28;20055;-77
2022/02/02 08:21:26;;;;;;;22.30;3.50;;;;;;;4.74;82.81;99668.38;5056200;28;20041;-77
2022/02/02 08:23:51;;;;;;;26.75;3.38;;;;;;;4.87;82.50;99671.00;5074016;28;20039;-77
2022/02/02 08:26:17;;;;;;;22.35;3.95;;;;;;;4.89;82.27;99674.50;5073560;28;20063;-77
2022/02/02 08:28:43;;;;;;;19.50;3.13;;;;;;;4.98;81.03;99695.47;5073200;28;20036;-77
2022/02/02 08:31:09;;;;;;;17.45;3.38;;;;;;;5.08;79.88;99678.91;5071575;28;20102;-77
2022/02/02 08:33:38;;;;;;;21.75;3.33;;;;;;;5.23;79.44;99683.31;5073149;28;20504;-76
2022/02/02 08:36:14;;;;;;;21.90;3.65;;;;;;;5.33;78.51;99684.19;5073004;28;20111;-76
2022/02/02 08:41:35;;;;;;;13.27;2.38;;;;;;;5.44;77.06;99706.00;5072125;28;20090;-77
2022/02/02 08:44:12;;;;;;;22.00;4.20;;;;;;;5.47;76.46;99706.88;5071704;28;20050;-77
2022/02/02 08:46:41;;;;;;;19.25;4.18;;;;;;;5.48;76.37;99711.25;5072020;28;20051;-76
2022/02/02 08:49:11;;;;;;;22.13;4.00;;;;;;;5.59;75.39;99692.94;5055347;28;20551;-77
2022/02/02 08:51:41;;;;;;;18.58;3.28;;;;;;;5.59;76.22;99706.03;5072204;28;20499;-77
2022/02/02 09:01:45;;;;;;;24.27;3.65;;;;;;;5.90;72.88;99711.28;5054290;28;20045;-77
2022/02/02 09:06:54;;;;;;;10.95;2.70;;;;;;;5.67;74.50;99755.78;5070486;28;20562;-77
2022/02/02 09:09:37;;;;;;;14.88;3.30;;;;;;;5.62;75.00;99753.16;5068771;28;20060;-76
2022/02/02 09:20:33;;;;;;;19.85;3.50;;;;;;;6.00;72.04;99733.13;5071475;28;20722;-76
2022/02/02 09:25:43;;;;;;;16.67;2.67;;;;;;;6.14;70.70;99768.94;5071477;28;20492;-76
2022/02/02 09:36:15;;;;;;;17.55;3.38;;;;;;;6.28;69.85;99766.28;5070418;28;20036;-76
2022/02/02 09:38:41;;;;;;;16.35;4.18;;;;;;;6.18;69.57;99837.91;5071711;28;20496;-76
2022/02/02 09:43:51;;;;;;;19.50;3.67;;;;;;;6.25;69.27;99775.91;5071784;28;20074;-77
2022/02/02 09:46:21;;;;;;;22.15;4.28;;;;;;;6.27;68.87;99790.75;5072171;28;20463;-76
2022/02/02 09:48:51;;;;;;;16.38;3.60;;;;;;;6.26;68.69;99794.28;5072505;28;20040;-76
2022/02/02 09:51:29;;;;;;;15.18;3.78;;;;;;;6.17;69.42;99811.72;5068575;28;20044;-76
2022/02/02 09:54:00;;;;;;;22.75;3.88;;;;;;;6.08;70.23;99794.28;5054394;28;20040;-76
2022/02/02 10:04:35;;;;;;;20.65;3.08;;;;;;;6.07;70.43;99830.03;5071216;28;20043;-77
2022/02/02 10:09:55;;;;;;;18.63;3.47;;;;;;;6.00;72.02;99835.28;5071929;28;20039;-76
2022/02/02 10:12:44;;;;;;;13.07;3.65;;;;;;;5.76;72.14;99867.50;5068255;28;20083;-76
2022/02/02 10:15:29;;;;;;;17.08;3.33;;;;;;;5.70;74.05;99857.88;5068813;28;20044;-76
2022/02/02 10:18:06;;;;;;;15.00;3.13;;;;;;;5.65;73.21;99857.00;5069349;28;20037;-76
2022/02/02 10:20:32;;;;;;;18.00;3.75;;;;;;;5.75;72.70;99857.91;5049883;28;20101;-76
2022/02/02 10:23:00;;;;;;;17.13;3.00;;;;;;;5.85;71.82;99855.31;5071371;28;20058;-76
2022/02/02 10:25:40;;;;;;;15.10;2.80;;;;;;;6.03;70.98;99849.28;5070893;28;20051;-76
2022/02/02 10:28:20;;;;;;;12.27;3.20;;;;;;;6.24;70.08;99842.31;5032539;28;20037;-76
2022/02/02 10:30:49;;;;;;;14.65;2.63;;;;;;;6.43;69.09;99869.38;5068200;28;20038;-76
2022/02/02 10:33:18;;;;;;;12.60;2.65;;;;;;;6.59;67.67;99851.00;5069724;28;20075;-76
2022/02/02 10:35:46;;;;;;;18.48;2.78;;;;;;;6.74;66.65;99838.78;5068054;28;20110;-76
2022/02/02 10:38:15;;;;;;;17.13;2.75;;;;;;;6.80;66.26;99846.63;5054144;28;20033;-76
2022/02/02 10:40:52;;;;;;;16.30;2.85;;;;;;;6.90;65.65;99839.63;5069849;28;20036;-76
2022/02/02 10:43:42;;;;;;;12.10;2.38;;;;;;;6.93;65.43;99850.97;5070545;28;20028;-76
2022/02/02 10:46:20;;;;;;;17.33;4.03;;;;;;;7.07;64.88;99863.19;5063925;28;20028;-76
2022/02/02 10:48:51;;;;;;;11.15;2.33;;;;;;;7.12;62.90;99853.53;5071505;28;20078;-76
2022/02/02 10:51:33;;;;;;;14.93;2.60;;;;;;;7.24;63.02;99856.13;5068033;28;20086;-77
2022/02/02 10:54:32;;;;;;;16.05;4.07;;;;;;;7.21;62.61;99862.28;5070288;28;20081;-77
2022/02/02 11:00:26;;;;;;;15.50;2.80;;;;;;;7.08;63.17;99867.56;5028846;28;20037;-76
2022/02/02 11:08:21;;;;;;;14.73;2.83;;;;;;;7.06;64.97;99887.69;5073270;28;20036;-76
2022/02/02 11:10:49;;;;;;;14.98;2.85;;;;;;;6.96;63.68;99942.78;5053051;28;20064;-76
2022/02/02 11:13:16;;;;;;;16.95;3.35;;;;;;;6.91;64.41;99928.78;5049828;28;20048;-76
2022/02/02 11:15:47;;;;;;;16.33;2.85;;;;;;;6.86;66.43;99906.94;5070093;28;20079;-76
2022/02/02 11:18:21;;;;;;;14.27;3.00;;;;;;;6.83;66.52;99900.81;5068223;28;20500;-76
2022/02/02 11:20:46;;;;;;;13.50;2.38;;;;;;;6.89;66.00;99922.69;5070782;28;20067;-76
2022/02/02 11:23:12;;;;;;;12.95;2.40;;;;;;;6.99;65.32;99920.91;5049336;28;20037;-76
2022/02/02 11:25:40;;;;;;;20.63;3.30;;;;;;;6.95;63.57;99951.53;5069866;28;20044;-77
2022/02/02 11:28:21;;;;;;;13.00;2.80;;;;;;;7.06;63.85;99929.66;5070233;28;20470;-76
2022/02/02 11:30:47;;;;;;;14.77;3.38;;;;;;;6.98;63.35;99943.66;5066906;28;20133;-76
2022/02/02 11:33:15;;;;;;;15.98;3.10;;;;;;;7.18;63.14;99945.41;5070977;28;20495;-76
2022/02/02 11:35:54;;;;;;;16.63;2.60;;;;;;;7.42;62.54;99933.97;5055104;28;20037;-76
2022/02/02 11:38:28;;;;;;;12.00;2.60;;;;;;;7.56;61.02;99973.28;5068353;28;20472;-76
2022/02/02 11:41:15;;;;;;;13.88;2.83;;;;;;;7.72;61.71;99937.34;5055336;28;20442;-76
2022/02/02 11:47:08;;;;;;;15.10;2.60;;;;;;;7.76;62.95;99941.72;5052622;28;20059;-76
2022/02/02 11:49:50;;;;;;;11.68;2.20;;;;;;;7.60;61.45;99959.28;5071736;28;20488;-77
2022/02/02 11:52:38;;;;;;;8.60;2.50;;;;;;;7.46;60.16;99978.56;5050348;28;20043;-77
2022/02/02 11:55:26;;;;;;;11.48;2.28;;;;;;;7.35;58.64;100006.59;5068182;28;20447;-77
2022/02/02 11:58:01;;;;;;;13.07;2.67;;;;;;;7.16;57.51;100026.75;5059183;28;20053;-76
2022/02/02 12:00:46;;;;;;;10.15;2.85;;;;;;;7.11;59.38;99980.38;5053681;28;20047;-77
2022/02/02 12:03:31;;;;;;;12.55;2.50;;;;;;;7.14;60.35;100006.63;5052783;28;20041;-76
2022/02/02 12:06:20;;;;;;;14.93;2.13;;;;;;;6.98;60.30;99967.25;5070184;28;20043;-76
2022/02/02 12:47:18;;;;;;;11.95;2.90;;;;;;;5.71;70.14;100071.69;5070380;28;20055;-76
2022/02/02 12:58:06;;;;;;;12.25;1.92;;;;;;;6.12;61.89;100111.25;5051929;28;20408;-76
2022/02/02 13:02:59;;;;;;;11.57;2.15;;;;;;;6.19;61.57;100111.31;5071979;28;20535;-76
2022/02/02 13:05:25;;;;;;;9.55;2.05;;;;;;;6.03;62.71;100136.56;5072561;28;20044;-76
2022/02/02 13:07:55;;;;;;;13.13;2.35;;;;;;;5.97;62.96;100131.25;5073426;28;20031;-76
2022/02/02 13:10:23;;;;;;;15.32;2.67;;;;;;;6.27;63.34;100136.69;5069342;28;20037;-76
2022/02/02 13:15:54;;;;;;;13.93;2.25;;;;;;;6.41;61.12;100128.88;5069129;28;20123;-76
2022/02/02 13:21:18;;;;;;;9.73;1.80;;;;;;;6.36;59.65;100151.56;5031550;28;20045;-76
2022/02/02 13:23:55;;;;;;;;;;;;;;;6.51;58.50;100129.81;5073375;28;20492;-77
2022/02/02 13:27:17;;;;;;;8.75;1.60;;;;;;;6.79;58.12;100142.13;5071711;28;20049;-76
2022/02/02 13:29:44;;;;;;;8.77;2.00;;;;;;;6.84;57.45;100122.91;5065396;28;20048;-74
2022/02/02 13:32:07;;;;;;;10.90;2.70;;;;;;;6.90;57.51;100157.03;5065266;28;20597;-74
2022/02/02 13:34:43;;;;;;;11.00;1.90;;;;;;;6.86;55.24;100143.00;5072452;28;20468;-76
2022/02/02 13:48:46;;;;;;;8.23;1.63;;;;;;;6.90;53.61;100214.75;5072393;28;20058;-76
2022/02/02 14:01:37;;;;;;;10.45;2.00;;;;;;;7.17;51.96;100232.31;5072012;28;20059;-76
2022/02/02 14:07:18;;;;;;;8.90;1.50;;;;;;;7.09;52.55;100224.41;5070898;28;20032;-75
2022/02/02 14:31:22;;;;;;;13.30;2.00;;;;;;;7.10;51.25;100317.13;5070403;28;20041;-76
2022/02/02 14:33:51;;;;;;;15.48;2.10;;;;;;;7.79;49.57;100302.50;5052464;28;20040;-76
2022/02/02 14:36:20;;;;;;;10.70;2.40;;;;;;;8.17;48.24;100293.75;5071014;28;20036;-76
2022/02/02 14:38:58;;;;;;;12.38;2.60;;;;;;;8.46;48.86;100300.75;5071594;28;20040;-75
2022/02/02 14:41:40;;;;;;;12.07;2.22;;;;;;;8.76;48.05;100305.97;5069558;28;20094;-76
2022/02/02 14:44:14;;;;;;;;;;;;;;;8.84;47.35;100299.81;5068985;28;20390;-76
2022/02/02 14:46:45;;;;;;;9.57;2.42;;;;;;;8.85;47.90;100309.47;5070101;28;19919;-76
2022/02/02 14:49:16;;;;;;;14.90;2.95;;;;;;;8.83;47.93;100319.13;5050121;28;20024;-76
2022/02/02 14:54:28;;;;;;;8.90;2.20;;;;;;;8.54;49.27;100330.56;5070487;28;20040;-75
2022/02/02 15:05:23;;;;;;;7.70;1.70;;;;;;;8.37;50.83;100348.09;5071081;28;20112;-76
2022/02/02 15:16:51;;;;;;;11.00;2.65;;;;;;;6.52;58.27;100388.47;5068061;28;20054;-76
2022/02/02 15:24:50;;;;;;;9.02;1.83;;;;;;;5.90;61.10;100407.97;5062398;28;20033;-74
2022/02/02 15:27:21;;;;;;;13.10;2.88;;;;;;;5.86;61.70;100408.78;5058627;28;20040;-76
2022/02/02 15:29:58;;;;;;;9.90;2.70;;;;;;;5.81;61.82;100415.72;5070521;28;20127;-75
2022/02/02 15:32:26;;;;;;;12.55;2.35;;;;;;;5.70;62.06;100434.78;5036801;28;20064;-76
2022/02/02 15:34:56;;;;;;;12.93;2.30;;;;;;;5.67;62.08;100432.16;5035537;28;20102;-76
2022/02/02 15:40:15;;;;;;;14.57;2.25;;;;;;;5.66;61.38;100459.19;5050442;28;20032;-76
2022/02/02 15:57:03;;;;;;;14.23;2.58;;;;;;;5.39;61.61;100487.63;5068255;28;20032;-76
2022/02/02 15:59:05;;;;;;;10.32;2.10;;;;;;;5.28;62.25;100498.81;5066771;28;20574;-76
2022/02/02 16:04:21;;;;;;;17.25;2.45;;;;;;;5.19;62.62;100517.00;5072969;28;20062;-76
2022/02/02 16:06:48;;;;;;;12.20;2.38;;;;;;;5.14;62.45;100502.97;5069651;28;20115;-77
2022/02/02 16:09:51;;;;;;;10.85;2.55;;;;;;;5.05;63.22;100510.66;5073344;28;20049;-76
2022/02/02 16:12:15;;;;;;;13.02;2.75;;;;;;;4.97;63.69;100531.44;5064869;28;20143;-75
2022/02/02 16:14:53;;;;;;;11.60;2.55;;;;;;;4.92;63.78;100527.00;5069767;28;20176;-75
2022/02/02 16:39:10;;;;;;;12.52;2.72;;;;;;;4.72;64.92;100565.91;5073648;28;20432;-76
2022/02/02 16:44:20;;;;;;;17.63;3.30;;;;;;;4.61;65.47;100586.59;5069543;28;20571;-75
2022/02/02 16:46:46;;;;;;;13.85;2.65;;;;;;;4.55;65.96;100581.25;5054341;28;20033;-76
2022/02/02 16:49:11;;;;;;;15.82;3.15;;;;;;;4.49;66.11;100589.00;5073478;28;20501;-76
2022/02/02 16:51:37;;;;;;;11.10;2.15;;;;;;;4.53;65.93;100590.78;5072523;28;20433;-76
2022/02/02 16:54:06;;;;;;;14.85;2.80;;;;;;;4.61;65.75;100600.56;5070816;28;20511;-76
2022/02/02 17:32:02;;;;;;;17.05;4.03;;;;;;;4.97;66.98;100677.03;5065222;28;20033;-76
2022/02/02 17:34:41;;;;;;;13.10;3.55;;;;;;;4.93;67.12;100664.78;5072484;28;20032;-76
2022/02/02 17:40:05;;;;;;;16.08;2.92;;;;;;;4.69;68.90;100673.00;5067048;28;20170;-76
2022/02/02 17:56:34;;;;;;;12.63;2.38;;;;;;;4.64;71.80;100735.69;5071831;28;20071;-77
2022/02/02 18:12:57;;;;;;;7.28;1.80;;;;;;;4.76;72.79;100732.44;5021032;28;20084;-75
2022/02/02 18:18:46;;;;;;;11.02;2.55;;;;;;;4.63;73.66;100733.03;5071411;28;20044;-76
2022/02/02 18:21:08;;;;;;;10.07;2.22;;;;;;;4.41;74.43;100747.38;5069157;28;20098;-75
2022/02/02 18:26:27;;;;;;;9.30;1.70;;;;;;;4.25;75.80;100746.16;5068368;28;20042;-75
2022/02/02 18:31:43;;;;;;;12.23;2.53;;;;;;;4.07;76.35;100747.47;5071808;28;20476;-75
2022/02/02 18:36:52;;;;;;;10.27;2.33;;;;;;;3.99;76.47;100748.16;5071328;28;20036;-75
2022/02/02 18:44:51;;;;;;;12.85;2.45;;;;;;;3.81;77.70;100757.28;5070916;28;20408;-76
2022/02/02 18:50:02;;;;;;;11.55;2.88;;;;;;;3.79;77.62;100760.69;5070036;28;20495;-76
2022/02/02 18:55:23;;;;;;;14.00;3.40;;;;;;;3.93;77.28;100765.44;5070902;28;20044;-78
2022/02/02 18:58:00;;;;;;;12.05;2.28;;;;;;;3.95;77.48;100771.53;5066686;28;20041;-75
2022/02/02 19:04:07;;;;;;;10.25;2.80;;;;;;;4.06;76.79;100791.81;5071505;28;20404;-75
2022/02/02 19:06:20;;;;;;;13.30;2.95;;;;;;;4.09;75.87;100790.19;5057116;28;20052;-75
2022/02/02 19:39:03;;;;;;;9.13;2.00;;;;;;;4.30;72.08;100834.22;5071480;28;20528;-76
2022/02/02 20:05:34;;;;;;;8.57;1.77;;;;;;;3.57;74.22;100863.69;5046654;28;20079;-76
2022/02/02 20:11:03;;;;;;;7.95;2.05;;;;;;;3.45;74.47;100879.84;5033082;28;20040;-76
2022/02/02 20:13:28;;;;;;;7.70;1.65;;;;;;;3.40;74.63;100876.22;5072685;28;20123;-76
2022/02/02 20:15:54;;;;;;;6.15;1.63;;;;;;;3.34;74.92;100861.28;5077525;28;20436;-76
2022/02/02 20:18:19;;;;;;;5.95;1.65;;;;;;;3.36;74.67;100875.28;5075021;28;20070;-76
2022/02/02 20:20:46;;;;;;;10.13;1.80;;;;;;;3.27;74.97;100880.22;5073375;28;20467;-76
2022/02/02 20:23:12;;;;;;;11.15;2.60;;;;;;;3.22;75.17;100880.09;5073931;28;20119;-75
2022/02/02 20:25:41;;;;;;;6.80;2.15;;;;;;;3.18;76.10;100887.78;5054875;28;20044;-75
2022/02/02 20:28:07;;;;;;;10.32;3.13;;;;;;;3.12;75.90;100898.00;5048433;28;20067;-76
2022/02/02 20:30:34;;;;;;;7.72;2.08;;;;;;;3.11;75.93;100898.88;5056118;28;20036;-75
2022/02/02 20:32:59;;;;;;;9.65;2.40;;;;;;;3.08;76.38;100897.94;5055538;28;20039;-75
2022/02/02 20:35:25;;;;;;;12.38;2.53;;;;;;;3.07;76.35;100906.59;5070134;28;20459;-76
2022/02/02 20:37:50;;;;;;;12.23;1.85;;;;;;;3.04;76.60;100897.81;5069625;28;20028;-76
2022/02/02 20:40:15;;;;;;;6.93;1.25;;;;;;;2.98;76.70;100902.81;5070316;28;20501;-75
2022/02/02 20:43:07;;;;;;;8.63;1.20;;;;;;;2.98;76.92;100908.91;5055005;28;20515;-75
2022/02/02 21:09:30;;;;;;;8.77;1.52;;;;;;;2.61;78.82;100952.06;5069580;28;20374;-75
2022/02/02 21:14:40;;;;;;;14.20;1.40;;;;;;;2.51;79.30;100944.78;5073204;28;20036;-76
2022/02/02 21:17:09;;;;;;;7.95;1.63;;;;;;;2.46;79.32;100948.94;5069825;28;20044;-76
2022/02/02 21:19:46;;;;;;;8.48;1.63;;;;;;;2.46;79.67;100963.69;5073239;28;20032;-76
2022/02/02 21:22:12;;;;;;;10.57;2.13;;;;;;;2.34;79.92;100953.78;5059365;28;20047;-75
2022/02/02 21:29:39;;;;;;;12.82;1.92;;;;;;;2.36;79.65;100960.81;5072572;28;20036;-75
2022/02/02 21:32:05;;;;;;;10.05;1.90;;;;;;;2.34;79.83;100961.59;5072933;28;20051;-75
2022/02/02 21:34:31;;;;;;;12.25;1.95;;;;;;;2.38;79.72;100953.94;5072711;28;20041;-74
2022/02/02 21:37:01;;;;;;;14.40;1.48;;;;;;;2.39;79.53;100965.22;5072439;28;20037;-76
2022/02/02 21:39:29;;;;;;;14.02;1.70;;;;;;;2.27;79.94;100970.91;5071603;28;20064;-75
2022/02/02 21:41:54;;;;;;;9.48;1.85;;;;;;;2.19;80.19;100974.97;5072635;28;20492;-75
2022/02/02 21:44:21;;;;;;;9.77;1.58;;;;;;;2.17;80.39;100992.25;5071289;28;20062;-75
2022/02/02 21:46:47;;;;;;;10.50;2.08;;;;;;;2.14;80.22;100990.41;5067074;28;20044;-75
2022/02/02 21:49:16;;;;;;;9.13;1.30;;;;;;;2.05;80.67;100995.31;5072697;28;20037;-75
2022/02/02 21:51:54;;;;;;;12.07;2.17;;;;;;;2.07;80.44;101006.69;5072643;28;20051;-76
2022/02/02 21:54:20;;;;;;;7.63;1.85;;;;;;;2.00;80.74;101009.00;5051499;28;20123;-75
2022/02/02 21:56:45;;;;;;;8.27;1.15;;;;;;;1.95;81.07;101011.44;5072155;28;20136;-76